createdAt,value
2023-03-05T00:00:02.655Z,0
2023-03-05T00:05:03.275Z,0
2023-03-05T00:10:02.970Z,0
2023-03-05T00:15:02.937Z,0
2023-03-05T00:20:02.863Z,0
2023-03-05T00:25:02.427Z,0
2023-03-05T00:30:03.345Z,0
2023-03-05T00:35:03.113Z,0
2023-03-05T00:40:02.751Z,0
2023-03-05T00:45:03.361Z,0
2023-03-05T00:50:03.010Z,0
2023-03-05T00:55:03.572Z,0
2023-03-05T01:00:02.457Z,0
2023-03-05T01:05:02.971Z,0
2023-03-05T01:10:02.940Z,0
2023-03-05T01:15:02.736Z,0
2023-03-05T01:20:02.465Z,0
2023-03-05T01:25:03.152Z,0
2023-03-05T01:30:02.913Z,0
2023-03-05T01:35:02.637Z,0
2023-03-05T01:40:02.505Z,0
2023-03-05T01:45:03.304Z,0
2023-03-05T01:50:02.970Z,0
2023-03-05T01:55:03.595Z,0
2023-03-05T02:00:02.389Z,0
2023-03-05T02:05:03.246Z,0
2023-03-05T02:10:03.176Z,0
2023-03-05T02:15:03.407Z,0
2023-03-05T02:20:03.082Z,0
2023-03-05T02:25:02.815Z,0
2023-03-05T02:30:02.530Z,0
2023-03-05T02:35:03.231Z,0
2023-03-05T02:40:02.891Z,0
2023-03-05T02:45:02.864Z,0
2023-03-05T02:50:02.461Z,0
2023-03-05T02:55:03.538Z,0
2023-03-05T03:00:03.111Z,0
2023-03-05T03:05:02.640Z,0
2023-03-05T03:10:03.309Z,0
2023-03-05T03:15:03.270Z,0
2023-03-05T03:20:03.197Z,0
2023-03-05T03:25:02.877Z,0
2023-03-05T03:30:02.985Z,0
2023-03-05T03:35:03.047Z,0
2023-03-05T03:40:02.670Z,0
2023-03-05T03:45:02.778Z,0
2023-03-05T03:50:03.168Z,0
2023-03-05T03:55:03.558Z,0
2023-03-05T04:00:02.943Z,0
2023-03-05T04:05:02.476Z,0
2023-03-05T04:10:03.175Z,0
2023-03-05T04:15:03.237Z,0
2023-03-05T04:20:02.607Z,0
2023-03-05T04:25:02.468Z,0
2023-03-05T04:30:03.231Z,0
2023-03-05T04:35:03.034Z,0
2023-03-05T04:40:02.838Z,0
2023-03-05T04:45:02.599Z,0
2023-03-05T04:50:03.269Z,0
2023-03-05T04:55:03.797Z,0
2023-03-05T05:00:02.813Z,0
2023-03-05T05:05:02.647Z,0
2023-03-05T05:10:02.513Z,0.23
2023-03-05T05:15:03.381Z,0.79
2023-03-05T05:20:03.050Z,1.92
2023-03-05T05:25:03.116Z,5.66
2023-03-05T05:30:03.308Z,11.55
2023-03-05T05:35:02.740Z,10
2023-03-05T05:40:02.504Z,20
2023-03-05T05:45:02.467Z,40
2023-03-05T05:50:02.391Z,51.67
2023-03-05T05:55:03.729Z,105
2023-03-05T06:00:03.157Z,160
2023-03-05T06:05:02.798Z,145
2023-03-05T06:10:02.490Z,253.33
2023-03-05T06:15:03.377Z,488.33
2023-03-05T06:20:03.055Z,728.33
2023-03-05T06:25:02.968Z,858.33
2023-03-05T06:30:02.586Z,1066.67
2023-03-05T06:35:03.322Z,1196.67
2023-03-05T06:40:03.180Z,1293.33
2023-03-05T06:45:02.456Z,1375
2023-03-05T06:50:02.409Z,1381.67
2023-03-05T06:55:04.014Z,1521.67
2023-03-05T07:00:03.394Z,1890
2023-03-05T07:05:03.055Z,1550
2023-03-05T07:10:02.848Z,1291.67
2023-03-05T07:15:02.610Z,1050
2023-03-05T07:20:02.588Z,2411.67
2023-03-05T07:25:03.470Z,2886.67
2023-03-05T07:30:02.979Z,2303.33
2023-03-05T07:35:02.711Z,2338.33
2023-03-05T07:40:02.425Z,3153.33
2023-03-05T07:45:03.425Z,2851.67
2023-03-05T07:50:03.021Z,6261.67
2023-03-05T07:55:03.264Z,3946.67
2023-03-05T08:00:02.696Z,2048.33
2023-03-05T08:05:03.370Z,2241.67
2023-03-05T08:10:03.206Z,3248.33
2023-03-05T08:15:03.130Z,3270
2023-03-05T08:20:02.953Z,1776.67
2023-03-05T08:25:02.845Z,1590
2023-03-05T08:30:02.809Z,1268.33
2023-03-05T08:35:02.554Z,2306.67
2023-03-05T08:40:02.369Z,3975
2023-03-05T08:45:03.281Z,6978.33
2023-03-05T08:50:03.124Z,7041.67
2023-03-05T08:55:03.132Z,7158.33
2023-03-05T09:00:03.154Z,8643.33
2023-03-05T09:05:02.752Z,8841.67
2023-03-05T09:10:02.437Z,8443.33
2023-03-05T09:15:03.224Z,9360
2023-03-05T09:20:03.047Z,10355
2023-03-05T09:25:02.770Z,7845
2023-03-05T09:30:02.525Z,6638.33
2023-03-05T09:35:03.200Z,7281.67
2023-03-05T09:40:03.250Z,3818.33
2023-03-05T09:45:03.021Z,6156.67
2023-03-05T09:50:02.714Z,5416.67
2023-03-05T10:00:03.520Z,5325
2023-03-05T10:05:03.124Z,5378.33
2023-03-05T10:10:02.812Z,3493.33
2023-03-05T10:15:02.623Z,3053.33
2023-03-05T10:20:02.593Z,3951.67
2023-03-05T10:25:03.309Z,4678.33
2023-03-05T10:30:03.065Z,4528.33
2023-03-05T10:35:02.881Z,5730
2023-03-05T10:40:02.895Z,5511.67
2023-03-05T10:45:02.778Z,7230
2023-03-05T10:50:02.786Z,8061.67
2023-03-05T10:55:02.752Z,7663.33
2023-03-05T11:00:03.316Z,5613.33
2023-03-05T11:05:05.362Z,5968.33
2023-03-05T11:10:02.930Z,7486.67
2023-03-05T11:15:02.581Z,5955
2023-03-05T11:20:02.651Z,7965
2023-03-05T11:25:02.494Z,7503.33
2023-03-05T11:30:03.482Z,6123.33
2023-03-05T11:35:03.252Z,5028.33
2023-03-05T11:40:02.974Z,4196.67
2023-03-05T11:45:02.851Z,3983.33
2023-03-05T11:50:02.641Z,4236.67
2023-03-05T11:55:03.304Z,4455
2023-03-05T12:00:03.478Z,4876.67
2023-03-05T12:05:02.898Z,6980
2023-03-05T12:10:02.761Z,7505
2023-03-05T12:15:02.989Z,5673.33
2023-03-05T12:20:02.929Z,5490
2023-03-05T12:25:02.564Z,6393.33
2023-03-05T12:30:03.345Z,5131.67
2023-03-05T12:35:02.974Z,4380
2023-03-05T12:40:02.964Z,5033.33
2023-03-05T12:45:02.783Z,8258.33
2023-03-05T12:50:02.505Z,8825
2023-03-05T12:55:04.089Z,7823.33
2023-03-05T13:00:03.172Z,6275
2023-03-05T13:05:02.870Z,8005
2023-03-05T13:10:02.606Z,9730
2023-03-05T13:15:02.530Z,10933.33
2023-03-05T13:20:03.168Z,11545
2023-03-05T13:25:03.085Z,5601.67
2023-03-05T13:30:02.978Z,8713.33
2023-03-05T13:35:03.222Z,11363.33
2023-03-05T13:40:02.771Z,9466.67
2023-03-05T13:45:02.761Z,8178.33
2023-03-05T13:50:02.608Z,7913.33
2023-03-05T13:55:02.798Z,4448.33
2023-03-05T14:00:02.522Z,3725
2023-03-05T14:05:03.649Z,7116.67
2023-03-05T14:10:02.968Z,5808.33
2023-03-05T14:15:02.931Z,6020
2023-03-05T14:20:02.682Z,11815
2023-03-05T14:25:02.394Z,4033.33
2023-03-05T14:30:03.258Z,4193.33
2023-03-05T14:35:02.894Z,5686.67
2023-03-05T14:40:02.741Z,4080
2023-03-05T14:45:03.408Z,3135
2023-03-05T14:50:03.005Z,2975
2023-03-05T14:55:03.433Z,2326.67
2023-03-05T15:00:03.023Z,1831.67
2023-03-05T15:05:02.858Z,1426.67
2023-03-05T15:10:02.699Z,886.67
2023-03-05T15:15:03.196Z,1006.67
2023-03-05T15:20:03.049Z,1813.33
2023-03-05T15:25:02.712Z,2160
2023-03-05T15:30:02.487Z,1798.33
2023-03-05T15:35:02.389Z,1570
2023-03-05T15:40:03.397Z,1593.33
2023-03-05T15:45:03.007Z,1088.33
2023-03-05T15:50:03.039Z,1718.33
2023-03-05T15:55:03.485Z,1906.67
2023-03-05T16:00:02.759Z,1353.33
2023-03-05T16:05:02.456Z,1031.67
2023-03-05T16:10:03.194Z,846.67
2023-03-05T16:15:03.241Z,591.67
2023-03-05T16:20:03.092Z,361.67
2023-03-05T16:25:02.731Z,256.67
2023-03-05T16:30:02.468Z,243.33
2023-03-05T16:35:03.077Z,308.33
2023-03-05T16:40:02.902Z,226.67
2023-03-05T16:45:02.560Z,175
2023-03-05T16:50:02.576Z,150
2023-03-05T16:55:03.525Z,115
2023-03-05T17:00:03.217Z,50
2023-03-05T17:05:02.563Z,26.67
2023-03-05T17:10:03.262Z,10
2023-03-05T17:15:03.237Z,7.47
2023-03-05T17:20:03.048Z,2.83
2023-03-05T17:25:02.704Z,1.02
2023-03-05T17:30:02.537Z,0.34
2023-03-05T17:35:05.701Z,0
2023-03-05T17:40:03.063Z,0
2023-03-05T17:45:02.932Z,0
2023-03-05T17:50:02.663Z,0
2023-03-05T17:55:03.196Z,0
2023-03-05T18:00:03.333Z,0
2023-03-05T18:05:04.524Z,0
2023-03-05T18:10:02.874Z,0
2023-03-05T18:15:02.595Z,0
2023-03-05T18:20:04.372Z,0
2023-03-05T18:25:02.736Z,0
2023-03-05T18:30:02.454Z,0
2023-03-05T18:35:03.135Z,0
2023-03-05T18:40:02.845Z,0
2023-03-05T18:45:03.075Z,0
2023-03-05T18:50:02.891Z,0
2023-03-05T18:55:03.116Z,0
2023-03-05T19:00:03.390Z,0
2023-03-05T19:05:03.267Z,0
2023-03-05T19:10:02.884Z,0
2023-03-05T19:15:02.761Z,0
2023-03-05T19:20:02.388Z,0
2023-03-05T19:25:03.320Z,0
2023-03-05T19:30:03.076Z,0
2023-03-05T19:35:02.822Z,0
2023-03-05T19:40:02.692Z,0
2023-03-05T19:45:03.379Z,0
2023-03-05T19:50:03.075Z,0
2023-03-05T19:55:02.989Z,0
2023-03-05T20:00:02.638Z,0
2023-03-05T20:05:02.629Z,0
2023-03-05T20:10:02.602Z,0
2023-03-05T20:15:03.376Z,0
2023-03-05T20:20:03.179Z,0
2023-03-05T20:25:02.946Z,0
2023-03-05T20:30:03.167Z,0
2023-03-05T20:35:02.956Z,0
2023-03-05T20:40:02.696Z,0
2023-03-05T20:45:02.461Z,0
2023-03-05T20:50:03.254Z,0
2023-03-05T20:55:03.551Z,0
2023-03-05T21:00:02.994Z,0
2023-03-05T21:05:02.658Z,0
2023-03-05T21:10:03.330Z,0
2023-03-05T21:15:03.078Z,0
2023-03-05T21:20:03.008Z,0
2023-03-05T21:25:02.713Z,0
2023-03-05T21:30:03.113Z,0
2023-03-05T21:35:03.317Z,0
2023-03-05T21:40:03.060Z,0
2023-03-05T21:45:03.519Z,0
2023-03-05T21:50:02.971Z,0
2023-03-05T21:55:03.219Z,0
2023-03-05T22:00:02.518Z,0
2023-03-05T22:05:02.847Z,0
2023-03-05T22:10:02.983Z,0
2023-03-05T22:15:03.004Z,0
2023-03-05T22:20:03.186Z,0
2023-03-05T22:25:02.780Z,0
2023-03-05T22:30:02.556Z,0
2023-03-05T22:35:02.471Z,0
2023-03-05T22:40:03.315Z,0
2023-03-05T22:45:03.063Z,0
2023-03-05T22:50:02.926Z,0
2023-03-05T22:55:03.184Z,0
2023-03-05T23:00:02.467Z,0
2023-03-05T23:05:02.945Z,0
2023-03-05T23:10:02.674Z,0
2023-03-05T23:15:02.589Z,0
2023-03-05T23:20:02.450Z,0
2023-03-05T23:25:03.132Z,0
2023-03-05T23:30:02.826Z,0
2023-03-05T23:35:02.567Z,0
2023-03-05T23:40:02.395Z,0
2023-03-05T23:45:03.109Z,0
2023-03-05T23:50:02.996Z,0
2023-03-05T23:55:03.176Z,0
